Time,TemperatureF,DewpointF,PressureIn,WindDirection,WindDirectionDegrees,WindSpeedMPH,WindSpeedGustMPH,Humidity,HourlyPrecipIn,Conditions,Clouds,dailyrainin,SoftwareType,DateUTC
2013-06-07 00:03:00,45.9,31.9,21.94,NE,45,0.0,0.0,58,0.00,,---,0.00,VWS V14.01,2013-06-07 06:03:00,
2013-06-07 00:09:00,44.8,32.2,21.94,NE,45,0.0,0.0,61,0.00,,---,0.00,VWS V14.01,2013-06-07 06:09:00,
2013-06-07 00:14:00,44.4,32.2,21.94,NE,45,0.0,0.0,62,0.00,,---,0.00,VWS V14.01,2013-06-07 06:14:00,
2013-06-07 00:19:00,43.5,32.2,21.94,NE,45,0.0,0.0,64,0.00,,---,0.00,VWS V14.01,2013-06-07 06:19:00,
2013-06-07 00:24:00,43.2,31.8,21.94,NE,45,0.0,0.0,64,0.00,,---,0.00,VWS V14.01,2013-06-07 06:24:00,
2013-06-07 00:29:00,42.6,32.1,21.94,NE,45,0.0,0.0,66,0.00,,---,0.00,VWS V14.01,2013-06-07 06:29:00,
2013-06-07 00:34:00,42.4,32.3,21.94,NE,45,0.0,0.0,67,0.00,,---,0.00,VWS V14.01,2013-06-07 06:34:00,
2013-06-07 00:39:00,42.4,33.0,21.94,NE,45,0.0,0.0,69,0.00,,---,0.00,VWS V14.01,2013-06-07 06:39:00,
2013-06-07 00:45:00,42.1,32.7,21.94,NE,45,0.0,0.0,69,0.00,,---,0.00,VWS V14.01,2013-06-07 06:45:00,
2013-06-07 00:50:00,41.7,32.7,21.91,NE,45,0.0,0.0,70,0.00,,---,0.00,VWS V14.01,2013-06-07 06:50:00,
2013-06-07 00:55:00,41.5,32.8,21.91,NE,45,0.0,0.0,71,0.00,,---,0.00,VWS V14.01,2013-06-07 06:55:00,
2013-06-07 01:00:00,41.9,33.5,21.91,NE,45,0.0,0.0,72,0.00,,---,0.00,VWS V14.01,2013-06-07 07:00:00,
2013-06-07 01:05:00,41.5,32.8,21.91,NE,45,0.0,0.0,71,0.00,,---,0.00,VWS V14.01,2013-06-07 07:05:00,
2013-06-07 01:10:00,41.0,32.7,21.91,NE,45,0.0,0.0,72,0.00,,---,0.00,VWS V14.01,2013-06-07 07:10:00,
2013-06-07 01:16:00,41.0,33.0,21.91,NE,45,0.0,0.0,73,0.00,,---,0.00,VWS V14.01,2013-06-07 07:16:00,
2013-06-07 01:21:00,40.5,32.5,21.91,NE,45,0.0,0.0,73,0.00,,---,0.00,VWS V14.01,2013-06-07 07:21:00,
2013-06-07 01:26:00,39.7,32.5,21.91,NE,45,0.0,0.0,75,0.00,,---,0.00,VWS V14.01,2013-06-07 07:26:00,
2013-06-07 01:32:00,39.4,32.5,21.91,NE,45,0.0,0.0,76,0.00,,---,0.00,VWS V14.01,2013-06-07 07:32:00,
2013-06-07 01:37:00,39.2,32.3,21.91,NE,45,0.0,0.0,76,0.00,,---,0.00,VWS V14.01,2013-06-07 07:37:00,
2013-06-07 01:42:00,38.7,32.1,21.91,NE,45,0.0,0.0,77,0.00,,---,0.00,VWS V14.01,2013-06-07 07:42:00,
2013-06-07 01:47:00,38.7,32.7,21.91,NE,45,0.0,0.0,79,0.00,,---,0.00,VWS V14.01,2013-06-07 07:47:00,
2013-06-07 01:52:00,38.5,32.5,21.91,NE,45,0.0,0.0,79,0.00,,---,0.00,VWS V14.01,2013-06-07 07:52:00,
2013-06-07 01:57:00,38.3,33.0,21.91,NE,45,0.0,0.0,81,0.00,,---,0.00,VWS V14.01,2013-06-07 07:57:00,
2013-06-07 02:03:00,37.9,32.6,21.91,NE,45,0.0,0.0,81,0.00,,---,0.00,VWS V14.01,2013-06-07 08:03:00,
2013-06-07 02:08:00,37.9,33.0,21.91,NE,45,0.0,0.0,82,0.00,,---,0.00,VWS V14.01,2013-06-07 08:08:00,
2013-06-07 02:13:00,37.6,32.9,21.91,NE,45,0.0,0.0,83,0.00,,---,0.00,VWS V14.01,2013-06-07 08:13:00,
2013-06-07 02:18:00,37.4,33.0,21.91,NE,45,0.0,0.0,84,0.00,,---,0.00,VWS V14.01,2013-06-07 08:18:00,
2013-06-07 02:23:00,37.4,33.3,21.91,NE,45,0.0,0.0,85,0.00,,---,0.00,VWS V14.01,2013-06-07 08:23:00,
2013-06-07 02:29:00,37.2,33.1,21.91,NE,45,0.0,0.0,85,0.00,,---,0.00,VWS V14.01,2013-06-07 08:29:00,
2013-06-07 02:34:00,37.2,33.4,21.88,NE,45,0.0,0.0,86,0.00,,---,0.00,VWS V14.01,2013-06-07 08:34:00,
2013-06-07 02:39:00,37.4,33.6,21.88,NE,45,0.0,0.0,86,0.00,,---,0.00,VWS V14.01,2013-06-07 08:39:00,
2013-06-07 02:44:00,37.4,33.6,21.88,NE,45,0.0,0.0,86,0.00,,---,0.00,VWS V14.01,2013-06-07 08:44:00,
2013-06-07 02:49:00,37.0,33.5,21.91,NE,45,0.0,0.0,87,0.00,,---,0.00,VWS V14.01,2013-06-07 08:49:00,
2013-06-07 02:54:00,37.2,33.7,21.91,NE,45,0.0,0.0,87,0.00,,---,0.00,VWS V14.01,2013-06-07 08:54:00,
2013-06-07 02:59:00,37.2,34.0,21.91,NE,45,0.0,0.0,88,0.00,,---,0.00,VWS V14.01,2013-06-07 08:59:00,
2013-06-07 03:05:00,37.0,33.8,21.88,NE,45,0.0,0.0,88,0.00,,---,0.00,VWS V14.01,2013-06-07 09:05:00,
2013-06-07 03:11:00,36.9,33.7,21.88,NE,45,0.0,0.0,88,0.00,,---,0.00,VWS V14.01,2013-06-07 09:11:00,
2013-06-07 03:16:00,37.0,33.8,21.88,NE,45,0.0,0.0,88,0.00,,---,0.00,VWS V14.01,2013-06-07 09:16:00,
2013-06-07 03:22:00,37.0,33.8,21.88,NE,45,0.0,0.0,88,0.00,,---,0.00,VWS V14.01,2013-06-07 09:22:00,
2013-06-07 03:27:00,36.9,33.7,21.88,NE,45,0.0,0.0,88,0.00,,---,0.00,VWS V14.01,2013-06-07 09:27:00,
2013-06-07 03:33:00,36.7,33.5,21.88,NE,45,0.0,0.0,88,0.00,,---,0.00,VWS V14.01,2013-06-07 09:33:00,
2013-06-07 03:38:00,36.9,33.9,21.88,NE,45,0.0,0.0,89,0.00,,---,0.00,VWS V14.01,2013-06-07 09:38:00,
2013-06-07 03:43:00,36.5,33.6,21.88,NE,45,0.0,0.0,89,0.00,,---,0.00,VWS V14.01,2013-06-07 09:43:00,
2013-06-07 03:48:00,36.3,33.4,21.88,NE,45,0.0,0.0,89,0.00,,---,0.00,VWS V14.01,2013-06-07 09:48:00,
2013-06-07 03:53:00,36.3,33.4,21.88,NE,45,0.0,0.0,89,0.00,,---,0.00,VWS V14.01,2013-06-07 09:53:00,
2013-06-07 03:58:00,36.1,33.5,21.88,NE,45,0.0,0.0,90,0.00,,---,0.00,VWS V14.01,2013-06-07 09:58:00,
2013-06-07 04:04:00,36.0,33.3,21.88,NE,45,0.0,0.0,90,0.00,,---,0.00,VWS V14.01,2013-06-07 10:04:00,
2013-06-07 04:09:00,35.8,33.4,21.88,NE,45,0.0,0.0,91,0.00,,---,0.00,VWS V14.01,2013-06-07 10:09:00,
2013-06-07 04:15:00,36.7,34.6,21.88,SE,135,0.0,2.7,92,0.00,,---,0.00,VWS V14.01,2013-06-07 10:15:00,
2013-06-07 04:21:00,37.2,35.1,21.88,ENE,68,0.0,0.0,92,0.00,,---,0.00,VWS V14.01,2013-06-07 10:21:00,
2013-06-07 04:26:00,37.4,34.7,21.88,ENE,68,0.0,0.0,90,0.00,,---,0.00,VWS V14.01,2013-06-07 10:26:00,
2013-06-07 04:31:00,37.0,33.8,21.88,North,0,0.0,0.0,88,0.00,,---,0.00,VWS V14.01,2013-06-07 10:31:00,
2013-06-07 04:36:00,37.0,33.8,21.88,North,0,0.0,0.0,88,0.00,,---,0.00,VWS V14.01,2013-06-07 10:36:00,
2013-06-07 04:41:00,37.0,34.1,21.88,North,0,0.0,0.0,89,0.00,,---,0.00,VWS V14.01,2013-06-07 10:41:00,
2013-06-07 04:47:00,36.7,33.5,21.88,North,0,0.0,0.0,88,0.00,,---,0.00,VWS V14.01,2013-06-07 10:47:00,
2013-06-07 04:52:00,36.7,33.8,21.88,North,0,0.0,0.0,89,0.00,,---,0.00,VWS V14.01,2013-06-07 10:52:00,
2013-06-07 04:57:00,36.7,33.8,21.88,North,0,0.0,0.0,89,0.00,,---,0.00,VWS V14.01,2013-06-07 10:57:00,
2013-06-07 05:02:00,36.9,34.2,21.88,North,0,0.0,0.0,90,0.00,,---,0.00,VWS V14.01,2013-06-07 11:02:00,
2013-06-07 05:07:00,36.7,34.0,21.88,North,0,0.0,0.0,90,0.00,,---,0.00,VWS V14.01,2013-06-07 11:07:00,
2013-06-07 05:12:00,36.5,33.8,21.88,North,0,0.0,0.0,90,0.00,,---,0.00,VWS V14.01,2013-06-07 11:12:00,
2013-06-07 05:17:00,36.5,34.1,21.88,North,0,0.0,0.0,91,0.00,,---,0.00,VWS V14.01,2013-06-07 11:17:00,
2013-06-07 05:22:00,36.5,34.1,21.88,North,0,0.0,0.0,91,0.00,,---,0.00,VWS V14.01,2013-06-07 11:22:00,
2013-06-07 05:27:00,36.1,33.8,21.88,North,0,0.0,0.0,91,0.00,,---,0.00,VWS V14.01,2013-06-07 11:27:00,
2013-06-07 05:34:00,36.1,34.0,21.88,North,0,0.0,0.0,92,0.00,,---,0.00,VWS V14.01,2013-06-07 11:34:00,
2013-06-07 05:39:00,36.1,34.0,21.88,North,0,0.0,0.0,92,0.00,,---,0.00,VWS V14.01,2013-06-07 11:39:00,
2013-06-07 05:44:00,36.3,34.5,21.88,North,0,0.0,0.0,93,0.00,,---,0.00,VWS V14.01,2013-06-07 11:44:00,
2013-06-07 05:49:00,36.3,34.8,21.88,North,0,0.0,0.0,94,0.00,,---,0.00,VWS V14.01,2013-06-07 11:49:00,
2013-06-07 05:54:00,36.3,34.8,21.88,North,0,0.0,0.0,94,0.00,,---,0.00,VWS V14.01,2013-06-07 11:54:00,
2013-06-07 06:00:00,36.5,35.2,21.88,North,0,0.0,0.0,95,0.00,,---,0.00,VWS V14.01,2013-06-07 12:00:00,
2013-06-07 06:05:00,36.7,35.4,21.88,North,0,0.0,0.0,95,0.00,,---,0.00,VWS V14.01,2013-06-07 12:05:00,
2013-06-07 06:10:00,36.7,35.4,21.88,North,0,0.0,0.0,95,0.00,,---,0.00,VWS V14.01,2013-06-07 12:10:00,
2013-06-07 06:15:00,37.4,36.1,21.88,North,0,0.0,0.0,95,0.00,,---,0.00,VWS V14.01,2013-06-07 12:15:00,
2013-06-07 06:20:00,37.2,35.9,21.88,North,0,0.0,0.0,95,0.00,,---,0.00,VWS V14.01,2013-06-07 12:20:00,
2013-06-07 06:26:00,37.4,36.1,21.88,North,0,0.0,0.0,95,0.00,,---,0.00,VWS V14.01,2013-06-07 12:26:00,
2013-06-07 06:31:00,38.1,36.8,21.88,North,0,0.0,0.0,95,0.00,,---,0.00,VWS V14.01,2013-06-07 12:31:00,
2013-06-07 06:36:00,38.7,37.1,21.88,North,0,0.0,0.0,94,0.00,,---,0.00,VWS V14.01,2013-06-07 12:36:00,
2013-06-07 06:41:00,39.2,37.1,21.88,North,0,0.0,0.0,92,0.00,,---,0.00,VWS V14.01,2013-06-07 12:41:00,
2013-06-07 06:46:00,39.6,36.9,21.88,North,0,0.0,0.0,90,0.00,,---,0.00,VWS V14.01,2013-06-07 12:46:00,
2013-06-07 06:52:00,40.1,36.8,21.88,North,0,0.0,0.0,88,0.00,,---,0.00,VWS V14.01,2013-06-07 12:52:00,
2013-06-07 06:57:00,40.6,37.1,21.88,North,0,0.0,0.0,87,0.00,,---,0.00,VWS V14.01,2013-06-07 12:57:00,
2013-06-07 07:02:00,41.4,37.5,21.88,North,0,0.0,0.0,86,0.00,,---,0.00,VWS V14.01,2013-06-07 13:02:00,
2013-06-07 07:07:00,42.1,37.6,21.88,North,0,0.0,0.0,84,0.00,,---,0.00,VWS V14.01,2013-06-07 13:07:00,
2013-06-07 07:12:00,43.9,37.2,21.88,North,0,0.0,0.0,77,0.00,,---,0.00,VWS V14.01,2013-06-07 13:12:00,
2013-06-07 07:17:00,44.2,36.5,21.88,North,0,0.0,0.0,74,0.00,,---,0.00,VWS V14.01,2013-06-07 13:17:00,
2013-06-07 07:22:00,44.6,36.5,21.88,North,0,0.0,0.0,73,0.00,,---,0.00,VWS V14.01,2013-06-07 13:22:00,
2013-06-07 07:27:00,45.3,35.8,21.88,North,0,0.0,0.0,69,0.00,,---,0.00,VWS V14.01,2013-06-07 13:27:00,
2013-06-07 07:33:00,45.9,37.4,21.88,North,0,0.0,0.0,72,0.00,,---,0.00,VWS V14.01,2013-06-07 13:33:00,
2013-06-07 07:39:00,46.6,38.0,21.88,North,0,0.0,0.0,72,0.00,,---,0.00,VWS V14.01,2013-06-07 13:39:00,
2013-06-07 07:44:00,48.0,38.7,21.88,North,0,0.0,0.0,70,0.00,,---,0.00,VWS V14.01,2013-06-07 13:44:00,
2013-06-07 07:50:00,49.6,38.4,21.88,North,0,0.0,0.0,65,0.00,,---,0.00,VWS V14.01,2013-06-07 13:50:00,
2013-06-07 07:55:00,52.3,35.7,21.88,North,0,0.0,2.7,53,0.00,,---,0.00,VWS V14.01,2013-06-07 13:55:00,
2013-06-07 08:00:00,54.5,34.7,21.88,SE,135,3.6,3.6,47,0.00,,---,0.00,VWS V14.01,2013-06-07 14:00:00,
2013-06-07 08:06:00,56.3,35.8,21.88,SE,135,0.0,0.0,46,0.00,,---,0.00,VWS V14.01,2013-06-07 14:06:00,
2013-06-07 08:12:00,58.1,35.7,21.88,SE,135,0.0,0.0,43,0.00,,---,0.00,VWS V14.01,2013-06-07 14:12:00,
2013-06-07 08:17:00,59.0,34.1,21.88,SW,225,0.0,0.0,39,0.00,,---,0.00,VWS V14.01,2013-06-07 14:17:00,
2013-06-07 08:23:00,60.3,35.2,21.88,SW,225,0.0,0.0,39,0.00,,---,0.00,VWS V14.01,2013-06-07 14:23:00,
2013-06-07 08:28:00,60.1,35.1,21.88,SW,225,0.0,0.0,39,0.00,,---,0.00,VWS V14.01,2013-06-07 14:28:00,
2013-06-07 08:33:00,60.4,35.4,21.88,SW,225,0.0,0.0,39,0.00,,---,0.00,VWS V14.01,2013-06-07 14:33:00,
2013-06-07 08:40:00,58.6,33.1,21.88,SE,135,0.0,3.6,38,0.00,,---,0.00,VWS V14.01,2013-06-07 14:40:00,
2013-06-07 08:45:00,57.6,32.8,21.88,SE,135,2.7,3.1,39,0.00,,---,0.00,VWS V14.01,2013-06-07 14:45:00,
2013-06-07 08:50:00,57.4,32.7,21.88,SE,135,2.2,3.1,39,0.00,,---,0.00,VWS V14.01,2013-06-07 14:50:00,
2013-06-07 08:55:00,57.6,32.8,21.88,SE,135,2.2,3.1,39,0.00,,---,0.00,VWS V14.01,2013-06-07 14:55:00,
2013-06-07 09:00:00,58.1,33.3,21.88,SE,135,2.7,2.7,39,0.00,,---,0.00,VWS V14.01,2013-06-07 15:00:00,
2013-06-07 09:06:00,59.0,33.5,21.88,South,180,0.0,2.7,38,0.00,,---,0.00,VWS V14.01,2013-06-07 15:06:00,
2013-06-07 09:11:00,60.4,34.7,21.88,South,180,0.0,0.0,38,0.00,,---,0.00,VWS V14.01,2013-06-07 15:11:00,
2013-06-07 09:16:00,61.9,35.3,21.88,South,180,0.0,2.7,37,0.00,,---,0.00,VWS V14.01,2013-06-07 15:16:00,
2013-06-07 09:21:00,62.8,35.5,21.85,SE,135,2.7,3.1,36,0.00,,---,0.00,VWS V14.01,2013-06-07 15:21:00,
2013-06-07 09:26:00,62.8,34.8,21.85,ENE,68,3.1,3.1,35,0.00,,---,0.00,VWS V14.01,2013-06-07 15:26:00,
2013-06-07 09:31:00,63.1,35.1,21.85,ENE,68,0.0,0.0,35,0.00,,---,0.00,VWS V14.01,2013-06-07 15:31:00,
2013-06-07 09:36:00,62.8,34.0,21.85,ENE,68,0.0,0.0,34,0.00,,---,0.00,VWS V14.01,2013-06-07 15:36:00,
2013-06-07 09:41:00,63.3,34.5,21.85,ENE,68,0.0,0.0,34,0.00,,---,0.00,VWS V14.01,2013-06-07 15:41:00,
2013-06-07 09:46:00,62.6,33.9,21.85,ENE,68,0.0,0.0,34,0.00,,---,0.00,VWS V14.01,2013-06-07 15:46:00,
2013-06-07 09:52:00,61.9,34.0,21.85,ENE,68,0.0,0.0,35,0.00,,---,0.00,VWS V14.01,2013-06-07 15:52:00,
2013-06-07 09:58:00,63.3,34.5,21.85,ENE,68,0.0,3.1,34,0.00,,---,0.00,VWS V14.01,2013-06-07 15:58:00,
2013-06-07 10:03:00,64.9,35.2,21.85,ENE,68,0.0,0.0,33,0.00,,---,0.00,VWS V14.01,2013-06-07 16:03:00,
2013-06-07 10:08:00,66.2,36.3,21.85,ENE,68,0.0,3.1,33,0.00,,---,0.00,VWS V14.01,2013-06-07 16:08:00,
2013-06-07 10:13:00,65.8,34.4,21.85,ENE,68,2.2,2.2,31,0.00,,---,0.00,VWS V14.01,2013-06-07 16:13:00,
2013-06-07 10:18:00,65.7,33.4,21.85,ENE,68,0.0,2.2,30,0.00,,---,0.00,VWS V14.01,2013-06-07 16:18:00,
2013-06-07 10:23:00,66.6,34.2,21.85,ENE,68,0.0,2.2,30,0.00,,---,0.00,VWS V14.01,2013-06-07 16:23:00,
2013-06-07 10:29:00,66.7,34.3,21.85,ENE,68,0.0,3.1,30,0.00,,---,0.00,VWS V14.01,2013-06-07 16:29:00,
2013-06-07 10:34:00,66.0,32.9,21.85,West,270,0.0,0.0,29,0.00,,---,0.00,VWS V14.01,2013-06-07 16:34:00,
2013-06-07 10:40:00,65.7,32.6,21.85,NW,315,2.7,3.6,29,0.00,,---,0.00,VWS V14.01,2013-06-07 16:40:00,
2013-06-07 10:45:00,65.1,31.2,21.85,West,270,0.0,3.1,28,0.00,,---,0.00,VWS V14.01,2013-06-07 16:45:00,
2013-06-07 10:50:00,64.9,32.0,21.85,West,270,0.0,0.0,29,0.00,,---,0.00,VWS V14.01,2013-06-07 16:50:00,
2013-06-07 10:55:00,66.2,32.2,21.85,WNW,292,0.0,2.2,28,0.00,,---,0.00,VWS V14.01,2013-06-07 16:55:00,
2013-06-07 11:00:00,66.6,32.5,21.85,WNW,292,2.7,2.7,28,0.00,,---,0.00,VWS V14.01,2013-06-07 17:00:00,
2013-06-07 11:06:00,66.6,31.6,21.85,NW,315,0.0,3.6,27,0.00,,---,0.00,VWS V14.01,2013-06-07 17:06:00,
2013-06-07 11:11:00,66.7,32.6,21.85,NW,315,2.2,2.7,28,0.00,,---,0.00,VWS V14.01,2013-06-07 17:11:00,
2013-06-07 11:17:00,68.4,34.0,21.85,NW,315,0.0,2.7,28,0.00,,---,0.00,VWS V14.01,2013-06-07 17:17:00,
2013-06-07 11:22:00,67.6,32.5,21.85,North,0,2.7,4.0,27,0.00,,---,0.00,VWS V14.01,2013-06-07 17:22:00,
2013-06-07 11:27:00,68.2,33.0,21.85,NW,315,3.6,4.0,27,0.00,,---,0.00,VWS V14.01,2013-06-07 17:27:00,
2013-06-07 11:32:00,66.2,31.3,21.85,SW,225,4.0,4.0,27,0.00,,---,0.00,VWS V14.01,2013-06-07 17:32:00,
2013-06-07 11:38:00,64.8,30.0,21.85,North,0,0.0,0.0,27,0.00,,---,0.00,VWS V14.01,2013-06-07 17:38:00,
2013-06-07 11:43:00,66.0,32.0,21.85,North,0,0.0,0.0,28,0.00,,---,0.00,VWS V14.01,2013-06-07 17:43:00,
2013-06-07 11:48:00,65.1,30.3,21.85,NW,315,0.0,2.2,27,0.00,,---,0.00,VWS V14.01,2013-06-07 17:48:00,
2013-06-07 11:53:00,64.8,30.9,21.85,NW,315,0.0,0.0,28,0.00,,---,0.00,VWS V14.01,2013-06-07 17:53:00,
2013-06-07 11:59:00,63.9,31.0,21.85,West,270,3.1,3.1,29,0.00,,---,0.00,VWS V14.01,2013-06-07 17:59:00,
2013-06-07 12:04:00,63.7,30.9,21.85,SW,225,0.0,0.0,29,0.00,,---,0.00,VWS V14.01,2013-06-07 18:04:00,
2013-06-07 12:09:00,63.1,29.5,21.85,NW,315,0.0,3.6,28,0.00,,---,0.00,VWS V14.01,2013-06-07 18:09:00,
2013-06-07 12:14:00,62.8,30.1,21.85,SW,225,4.9,4.9,29,0.00,,---,0.00,VWS V14.01,2013-06-07 18:14:00,
2013-06-07 12:20:00,63.0,30.2,21.85,WNW,292,0.0,0.0,29,0.00,,---,0.00,VWS V14.01,2013-06-07 18:20:00,
2013-06-07 12:25:00,63.3,30.5,21.85,WNW,292,0.0,0.0,29,0.00,,---,0.00,VWS V14.01,2013-06-07 18:25:00,
2013-06-07 12:30:00,63.0,30.2,21.85,West,270,3.1,3.1,29,0.00,,---,0.00,VWS V14.01,2013-06-07 18:30:00,
2013-06-07 12:36:00,62.8,29.2,21.85,WNW,292,0.0,2.2,28,0.00,,---,0.00,VWS V14.01,2013-06-07 18:36:00,
2013-06-07 12:41:00,65.1,31.2,21.85,West,270,0.0,0.0,28,0.00,,---,0.00,VWS V14.01,2013-06-07 18:41:00,
2013-06-07 12:47:00,67.6,32.5,21.85,South,180,3.6,4.0,27,0.00,,---,0.00,VWS V14.01,2013-06-07 18:47:00,
2013-06-07 12:52:00,68.5,34.2,21.85,NW,315,0.0,4.5,28,0.00,,---,0.00,VWS V14.01,2013-06-07 18:52:00,
2013-06-07 12:57:00,66.0,36.9,21.85,NW,315,2.7,3.6,34,0.00,,---,0.00,VWS V14.01,2013-06-07 18:57:00,
2013-06-07 13:03:00,68.4,38.2,21.85,North,0,0.0,0.0,33,0.00,,---,0.00,VWS V14.01,2013-06-07 19:03:00,
2013-06-07 13:08:00,68.5,37.5,21.85,NW,315,0.0,4.0,32,0.00,,---,0.00,VWS V14.01,2013-06-07 19:08:00,
2013-06-07 13:13:00,68.7,37.7,21.85,North,0,2.7,2.7,32,0.00,,---,0.00,VWS V14.01,2013-06-07 19:13:00,
2013-06-07 13:19:00,69.1,38.0,21.82,NW,315,2.7,7.6,32,0.00,,---,0.00,VWS V14.01,2013-06-07 19:19:00,
2013-06-07 13:25:00,69.3,38.2,21.82,East,90,3.6,3.6,32,0.00,,---,0.00,VWS V14.01,2013-06-07 19:25:00,
2013-06-07 13:30:00,68.7,36.1,21.82,East,90,2.2,2.7,30,0.00,,---,0.00,VWS V14.01,2013-06-07 19:30:00,
2013-06-07 13:35:00,69.6,36.8,21.82,NE,45,0.0,3.6,30,0.00,,---,0.00,VWS V14.01,2013-06-07 19:35:00,
2013-06-07 13:42:00,70.0,38.8,21.82,NE,45,0.0,2.2,32,0.00,,---,0.00,VWS V14.01,2013-06-07 19:42:00,
2013-06-07 13:48:00,68.5,37.5,21.82,South,180,8.1,8.1,32,0.00,,---,0.00,VWS V14.01,2013-06-07 19:48:00,